Time;durP1;ratioP1;P1;durP2;ratioP2;P2;SDS_P1;SDS_P2;PMS_P1;PMS_P2;Temp;Humidity;BMP_temperature;BMP_pressure;BME280_temperature;BME280_humidity;BME280_pressure;Samples;Min_cycle;Max_cycle;Signal;HPM_P1;HPM_P2
2022/04/26 03:36:35;;;;;;;6.17;4.47;;;6.50;99.90;;;;;;4196266;28;21263;-69
2022/04/26 03:38:37;;;;;;;6.27;4.27;;;6.60;99.90;;;;;;4195168;28;20449;-70
2022/04/26 03:40:38;;;;;;;11.03;5.70;;;6.60;99.90;;;;;;4195206;28;20219;-69
2022/04/26 03:42:39;;;;;;;8.43;5.20;;;6.60;99.90;;;;;;4199260;28;20441;-69
2022/04/26 03:44:40;;;;;;;9.27;5.87;;;6.60;99.90;;;;;;4199162;28;20207;-70
2022/04/26 03:46:41;;;;;;;5.90;4.03;;;6.50;99.90;;;;;;4197010;28;20283;-69
2022/04/26 03:48:41;;;;;;;5.10;4.10;;;6.50;99.90;;;;;;4198672;28;20520;-70
2022/04/26 03:50:42;;;;;;;4.43;3.87;;;6.50;99.90;;;;;;4197214;28;20179;-69
2022/04/26 03:52:43;;;;;;;4.23;3.53;;;6.50;99.90;;;;;;4197700;28;20669;-69
2022/04/26 03:54:43;;;;;;;4.87;3.80;;;6.60;99.90;;;;;;4196312;28;20191;-70
2022/04/26 03:56:44;;;;;;;7.60;4.30;;;6.50;99.90;;;;;;4195488;28;20212;-69
2022/04/26 03:58:45;;;;;;;7.37;4.60;;;6.50;99.90;;;;;;4196251;28;20207;-69
2022/04/26 04:00:45;;;;;;;4.87;3.90;;;6.60;99.90;;;;;;4194651;28;20269;-71
2022/04/26 04:02:46;;;;;;;8.07;4.73;;;6.60;99.90;;;;;;4196027;28;20183;-69
2022/04/26 04:04:47;;;;;;;5.23;3.90;;;6.50;99.90;;;;;;4196033;28;20559;-69
2022/04/26 04:06:47;;;;;;;6.60;4.83;;;6.40;99.90;;;;;;4195586;28;20233;-69
2022/04/26 04:08:48;;;;;;;6.67;4.13;;;6.40;99.90;;;;;;4194966;28;20670;-69
2022/04/26 04:10:49;;;;;;;5.27;4.37;;;6.50;99.90;;;;;;4196385;28;20662;-70
2022/04/26 04:12:49;;;;;;;5.67;3.97;;;6.40;99.90;;;;;;4195864;28;20634;-70
2022/04/26 04:14:50;;;;;;;6.37;4.53;;;6.50;99.90;;;;;;4193251;28;20212;-69
2022/04/26 04:16:50;;;;;;;6.43;4.17;;;6.50;99.90;;;;;;4195226;28;20278;-69
2022/04/26 04:21:10;;;;;;;6.93;4.83;;;6.50;99.90;;;;;;4195727;28;20253;-69
2022/04/26 04:23:11;;;;;;;6.80;4.80;;;6.40;99.90;;;;;;4195822;28;21178;-69
2022/04/26 04:25:12;;;;;;;7.17;4.97;;;6.40;99.90;;;;;;4195432;28;20176;-69
2022/04/26 04:27:12;;;;;;;9.03;4.50;;;6.40;99.90;;;;;;4195309;28;20236;-69
2022/04/26 04:29:13;;;;;;;6.53;4.63;;;6.30;99.90;;;;;;4193986;28;20218;-69
2022/04/26 04:31:14;;;;;;;6.27;5.00;;;6.30;99.90;;;;;;4195478;28;20582;-69
2022/04/26 04:33:14;;;;;;;6.00;4.43;;;6.40;99.90;;;;;;4195407;28;20202;-69
2022/04/26 04:35:15;;;;;;;6.80;5.30;;;6.40;99.90;;;;;;4195073;28;20180;-71
2022/04/26 04:37:16;;;;;;;11.50;7.87;;;6.40;99.90;;;;;;4194887;28;20179;-70
2022/04/26 04:39:20;;;;;;;8.83;6.57;;;6.40;99.90;;;;;;4195183;28;20569;-70
2022/04/26 04:41:21;;;;;;;6.97;5.27;;;6.40;99.90;;;;;;4195195;28;20211;-70
2022/04/26 04:43:21;;;;;;;7.00;4.70;;;6.40;99.90;;;;;;4195224;28;21025;-70
2022/04/26 04:45:22;;;;;;;8.07;5.80;;;6.40;99.90;;;;;;4193340;28;20240;-71
2022/04/26 04:47:23;;;;;;;9.30;5.67;;;6.50;99.90;;;;;;4195355;28;20184;-70
2022/04/26 04:49:23;;;;;;;9.10;6.80;;;6.50;99.90;;;;;;4195224;28;20203;-70
2022/04/26 04:51:24;;;;;;;6.57;5.50;;;6.40;99.90;;;;;;4193764;28;20263;-70
2022/04/26 04:53:25;;;;;;;9.13;5.97;;;6.40;99.90;;;;;;4192842;28;20576;-70
2022/04/26 04:55:26;;;;;;;8.27;6.53;;;6.50;99.90;;;;;;4194560;28;20578;-70
2022/04/26 04:57:26;;;;;;;8.40;6.47;;;6.50;99.90;;;;;;4193814;28;20586;-70
2022/04/26 04:59:28;;;;;;;8.73;5.97;;;6.50;99.90;;;;;;4188661;28;20218;-70
2022/04/26 05:01:29;;;;;;;9.73;6.83;;;6.50;99.90;;;;;;4185659;28;20226;-70
2022/04/26 05:03:29;;;;;;;7.30;5.73;;;6.60;99.90;;;;;;4194968;28;20509;-70
2022/04/26 05:05:30;;;;;;;9.43;6.43;;;6.60;99.90;;;;;;4194263;28;20190;-70
2022/04/26 05:07:31;;;;;;;8.37;5.47;;;6.60;99.90;;;;;;4193774;28;20214;-70
2022/04/26 05:09:31;;;;;;;8.33;5.03;;;6.50;99.90;;;;;;4195236;28;20227;-70
2022/04/26 05:11:32;;;;;;;7.63;5.37;;;6.50;99.90;;;;;;4194951;28;20195;-70
2022/04/26 05:13:33;;;;;;;9.20;5.87;;;6.50;99.90;;;;;;4195044;28;20428;-70
2022/04/26 05:15:33;;;;;;;9.67;6.47;;;6.60;99.90;;;;;;4194729;28;20180;-70
2022/04/26 05:17:34;;;;;;;7.50;5.47;;;6.60;99.90;;;;;;4195307;28;20278;-70
2022/04/26 05:19:35;;;;;;;7.67;5.80;;;6.60;99.90;;;;;;4194963;28;20214;-70
2022/04/26 05:21:35;;;;;;;8.57;6.17;;;6.60;99.90;;;;;;4194778;28;20230;-70
2022/04/26 05:25:55;;;;;;;7.97;5.73;;;6.60;99.90;;;;;;4194021;28;20681;-70
2022/04/26 05:27:56;;;;;;;8.57;6.40;;;6.60;99.90;;;;;;4193593;28;20417;-70
2022/04/26 05:29:57;;;;;;;9.63;5.43;;;6.50;99.90;;;;;;4194806;28;20248;-70
2022/04/26 05:31:58;;;;;;;7.77;5.77;;;6.60;99.90;;;;;;4193546;28;20179;-70
2022/04/26 05:33:59;;;;;;;8.03;5.43;;;6.70;99.90;;;;;;4194708;28;20974;-71
2022/04/26 05:35:59;;;;;;;7.43;5.23;;;6.70;99.90;;;;;;4194244;28;20849;-70
2022/04/26 05:38:00;;;;;;;7.80;5.73;;;6.70;99.90;;;;;;4194903;28;20693;-70
2022/04/26 05:40:04;;;;;;;7.57;5.20;;;6.70;99.90;;;;;;4194807;28;20647;-70
2022/04/26 05:42:04;;;;;;;8.37;5.53;;;6.80;99.90;;;;;;4194823;28;20229;-70
2022/04/26 05:44:05;;;;;;;9.70;5.53;;;6.90;99.90;;;;;;4193366;28;20472;-70
2022/04/26 05:46:11;;;;;;;11.90;6.73;;;7.00;99.90;;;;;;4194131;28;20179;-71
2022/04/26 05:48:13;;;;;;;9.37;6.30;;;6.90;99.90;;;;;;4193712;28;20720;-71
2022/04/26 05:50:14;;;;;;;7.73;5.87;;;6.80;99.90;;;;;;4194713;28;20471;-71
2022/04/26 05:52:15;;;;;;;7.97;6.07;;;6.80;99.90;;;;;;4193749;28;20925;-71
2022/04/26 05:54:15;;;;;;;8.40;6.53;;;6.80;99.90;;;;;;4194952;28;20187;-70
2022/04/26 05:56:16;;;;;;;6.80;5.17;;;6.90;99.90;;;;;;4194295;28;20191;-70
2022/04/26 05:58:17;;;;;;;8.73;5.73;;;7.00;99.90;;;;;;4194624;28;20288;-70
2022/04/26 06:00:18;;;;;;;8.03;5.87;;;7.00;99.90;;;;;;4193317;28;20211;-70
2022/04/26 06:02:18;;;;;;;5.53;4.83;;;7.00;99.90;;;;;;4194822;28;20184;-70
2022/04/26 06:04:19;;;;;;;6.60;5.50;;;7.20;99.90;;;;;;4193358;28;20783;-70
2022/04/26 06:06:20;;;;;;;6.57;5.10;;;7.40;99.90;;;;;;4193893;28;20646;-70
2022/04/26 06:08:21;;;;;;;7.10;5.57;;;7.40;99.90;;;;;;4194685;28;20631;-70
2022/04/26 06:10:22;;;;;;;7.37;5.60;;;7.40;99.90;;;;;;4194590;28;20183;-70
2022/04/26 06:12:26;;;;;;;7.23;5.20;;;7.30;99.90;;;;;;4194457;28;20524;-71
2022/04/26 06:14:27;;;;;;;7.40;5.53;;;7.30;99.90;;;;;;4194635;28;20421;-71
2022/04/26 06:16:28;;;;;;;7.93;5.50;;;7.30;99.90;;;;;;4193808;28;20434;-70
2022/04/26 06:18:29;;;;;;;9.90;5.90;;;7.50;99.90;;;;;;4194464;28;20211;-70
2022/04/26 06:20:30;;;;;;;6.97;4.83;;;7.40;99.90;;;;;;4194318;28;21040;-70
2022/04/26 06:22:30;;;;;;;6.93;5.53;;;7.40;99.90;;;;;;4194485;28;20241;-69
2022/04/26 06:24:31;;;;;;;7.83;5.37;;;7.60;99.90;;;;;;4194464;28;20212;-70
2022/04/26 06:26:32;;;;;;;6.43;5.00;;;7.50;99.90;;;;;;4193873;28;20179;-70
2022/04/26 06:28:33;;;;;;;5.70;5.10;;;7.70;99.90;;;;;;4193237;28;20211;-70
2022/04/26 06:30:38;;;;;;;7.47;4.97;;;7.70;99.90;;;;;;4194536;28;20207;-70
2022/04/26 06:32:42;;;;;;;7.63;5.67;;;7.60;99.90;;;;;;4194474;28;20917;-70
2022/04/26 06:34:42;;;;;;;6.67;4.93;;;7.70;99.90;;;;;;4194223;28;20433;-70
2022/04/26 06:36:43;;;;;;;7.07;5.87;;;7.70;99.90;;;;;;4193854;28;20445;-70
2022/04/26 06:38:44;;;;;;;6.30;4.93;;;7.60;99.90;;;;;;4196331;28;20204;-70
2022/04/26 06:40:48;;;;;;;6.90;4.70;;;7.70;99.90;;;;;;4197192;28;20295;-70
2022/04/26 06:42:48;;;;;;;6.33;4.50;;;7.80;99.90;;;;;;4195908;28;20187;-70
2022/04/26 06:44:49;;;;;;;6.43;4.57;;;8.00;99.90;;;;;;4197025;28;20453;-70
2022/04/26 06:46:50;;;;;;;6.07;4.67;;;7.90;99.90;;;;;;4196589;28;20664;-70
2022/04/26 06:48:50;;;;;;;6.20;4.43;;;8.00;99.90;;;;;;4197265;28;20677;-70
2022/04/26 06:50:53;;;;;;;5.53;4.60;;;8.00;99.90;;;;;;4197083;28;20553;-69
2022/04/26 06:52:54;;;;;;;6.13;4.83;;;8.10;99.90;;;;;;4195771;28;20205;-70
2022/04/26 06:54:55;;;;;;;6.23;5.00;;;8.00;99.90;;;;;;4196060;28;20432;-70
2022/04/26 06:56:55;;;;;;;6.70;5.17;;;8.00;99.90;;;;;;4196492;28;20218;-70
2022/04/26 06:58:56;;;;;;;6.93;5.03;;;7.80;99.90;;;;;;4196894;28;20207;-70
2022/04/26 07:00:57;;;;;;;8.20;5.27;;;7.90;99.90;;;;;;4195600;28;20231;-70
2022/04/26 07:02:58;;;;;;;6.50;4.87;;;7.80;99.90;;;;;;4196968;28;20189;-70
2022/04/26 07:04:59;;;;;;;7.67;4.80;;;7.90;99.90;;;;;;4196696;28;20207;-70
2022/04/26 07:06:59;;;;;;;6.30;5.33;;;8.20;99.90;;;;;;4196337;28;20670;-70
2022/04/26 07:09:01;;;;;;;5.37;4.30;;;8.00;99.90;;;;;;4196826;28;20537;-70
2022/04/26 07:11:02;;;;;;;9.80;5.73;;;8.10;99.90;;;;;;4196859;28;20184;-70
2022/04/26 07:13:02;;;;;;;6.43;4.40;;;7.90;99.90;;;;;;4195361;28;20461;-70
2022/04/26 07:15:04;;;;;;;6.87;4.53;;;8.00;99.90;;;;;;4196550;28;20256;-72
2022/04/26 07:17:05;;;;;;;6.30;4.43;;;8.00;99.90;;;;;;4196244;28;20194;-72
2022/04/26 07:19:05;;;;;;;6.27;4.93;;;8.00;99.90;;;;;;4196600;28;20999;-71
2022/04/26 07:21:06;;;;;;;5.30;4.20;;;7.90;99.70;;;;;;4196578;28;20261;-72
2022/04/26 07:23:07;;;;;;;5.40;4.13;;;8.00;99.70;;;;;;4196427;28;20184;-72
2022/04/26 07:25:12;;;;;;;4.53;3.67;;;8.00;98.10;;;;;;4196401;28;20203;-72
2022/04/26 07:27:13;;;;;;;5.43;4.17;;;7.90;98.40;;;;;;4196181;28;20504;-71
2022/04/26 07:29:15;;;;;;;4.13;3.10;;;7.90;98.80;;;;;;4196261;28;20873;-71
2022/04/26 07:31:16;;;;;;;4.53;3.77;;;8.00;99.80;;;;;;4196573;28;20240;-72
2022/04/26 07:35:36;;;;;;;5.67;3.10;;;8.20;99.30;;;;;;4195916;28;20185;-71
2022/04/26 07:37:41;;;;;;;4.00;3.43;;;8.40;98.40;;;;;;4196491;28;20427;-71
2022/04/26 07:39:42;;;;;;;4.33;3.60;;;8.70;97.00;;;;;;4195224;28;20214;-71
2022/04/26 07:41:45;;;;;;;4.07;3.57;;;8.70;96.90;;;;;;4196554;28;20655;-72
2022/04/26 07:43:46;;;;;;;5.07;3.67;;;8.70;97.50;;;;;;4196428;28;20190;-72
2022/04/26 07:45:46;;;;;;;5.70;4.13;;;8.90;95.90;;;;;;4194347;28;20463;-71
2022/04/26 07:47:47;;;;;;;3.33;2.73;;;9.00;96.50;;;;;;4194932;28;20216;-71
2022/04/26 07:49:48;;;;;;;4.50;3.03;;;8.80;94.30;;;;;;4195788;28;20188;-72
2022/04/26 07:51:52;;;;;;;3.73;3.07;;;8.90;95.30;;;;;;4196388;28;20734;-71
2022/04/26 07:53:54;;;;;;;3.93;3.13;;;9.00;95.60;;;;;;4196265;28;20185;-71
2022/04/26 07:55:55;;;;;;;5.50;3.17;;;9.00;95.40;;;;;;4195606;28;20242;-72
2022/04/26 07:57:58;;;;;;;6.30;3.50;;;9.10;95.80;;;;;;4196449;28;20660;-71
2022/04/26 08:00:00;;;;;;;4.07;3.33;;;9.10;95.30;;;;;;4196180;28;20190;-71
2022/04/26 08:02:01;;;;;;;3.47;2.83;;;9.50;94.00;;;;;;4194758;28;20680;-72
2022/04/26 08:04:02;;;;;;;4.53;3.20;;;9.70;92.50;;;;;;4194972;28;20183;-71
2022/04/26 08:06:02;;;;;;;4.87;3.67;;;9.60;92.50;;;;;;4195065;28;20218;-72
2022/04/26 08:08:04;;;;;;;4.90;3.37;;;9.60;92.50;;;;;;4195769;28;20274;-71
2022/04/26 08:10:09;;;;;;;4.83;3.10;;;9.50;93.60;;;;;;4196064;28;20179;-71
2022/04/26 08:12:09;;;;;;;4.17;2.97;;;9.70;91.00;;;;;;4195741;28;20183;-72
2022/04/26 08:14:10;;;;;;;4.47;3.30;;;9.70;91.70;;;;;;4196617;28;20179;-71
2022/04/26 08:16:11;;;;;;;6.83;3.63;;;9.70;92.60;;;;;;4195343;28;20210;-72
2022/04/26 08:18:12;;;;;;;4.20;3.17;;;9.80;92.90;;;;;;4194385;28;20253;-71
2022/04/26 08:20:12;;;;;;;4.77;3.50;;;10.00;92.70;;;;;;4195728;28;20191;-72
2022/04/26 08:22:13;;;;;;;5.90;2.73;;;10.40;90.10;;;;;;4195829;28;20199;-72
2022/04/26 08:28:52;;;;;;;3.10;2.70;;;10.80;85.10;;;;;;4194698;28;20351;-71
2022/04/26 08:30:53;;;;;;;4.40;2.77;;;10.30;77.50;;;;;;4195683;28;20271;-72
2022/04/26 08:32:54;;;;;;;4.07;3.17;;;10.40;80.70;;;;;;4194298;28;20214;-72
2022/04/26 08:34:55;;;;;;;4.13;3.50;;;10.40;79.40;;;;;;4194070;28;20207;-72
2022/04/26 08:36:57;;;;;;;3.90;2.67;;;10.30;78.60;;;;;;4193790;28;20216;-71
2022/04/26 08:38:58;;;;;;;3.87;3.30;;;9.50;82.60;;;;;;4194271;28;20218;-71
2022/04/26 08:40:59;;;;;;;4.30;3.23;;;9.50;84.60;;;;;;4195528;28;20206;-72
2022/04/26 08:43:00;;;;;;;3.93;3.00;;;9.60;85.50;;;;;;4195523;28;20894;-72
2022/04/26 08:45:01;;;;;;;3.37;2.63;;;9.80;82.80;;;;;;4193818;28;20266;-71
2022/04/26 08:51:44;;;;;;;4.57;3.23;;;9.20;82.80;;;;;;4194346;28;20197;-71
2022/04/26 08:53:44;;;;;;;5.80;3.13;;;9.20;82.10;;;;;;4194126;28;20182;-71
2022/04/26 08:55:49;;;;;;;4.07;3.20;;;9.10;84.50;;;;;;4194570;28;20206;-71
2022/04/26 08:57:51;;;;;;;10.90;3.30;;;9.40;83.80;;;;;;4195437;28;20187;-72
2022/04/26 08:59:53;;;;;;;5.37;3.10;;;9.20;86.00;;;;;;4194094;28;20183;-71
2022/04/26 09:02:21;;;;;;;7.23;3.20;;;9.20;86.00;;;;;;4194556;28;20211;-71
2022/04/26 09:04:21;;;;;;;3.10;2.80;;;9.20;84.60;;;;;;4193549;28;20195;-71
2022/04/26 09:06:36;;;;;;;7.17;2.80;;;9.70;83.50;;;;;;4194320;28;20264;-71
2022/04/26 09:08:37;;;;;;;4.27;2.97;;;10.10;77.70;;;;;;4194156;28;20210;-72
2022/04/26 09:10:47;;;;;;;5.63;3.20;;;10.10;77.20;;;;;;4195241;28;20689;-71
2022/04/26 09:13:09;;;;;;;5.10;3.10;;;9.90;81.40;;;;;;4194946;28;20262;-71
2022/04/26 09:15:16;;;;;;;4.50;3.00;;;9.80;78.30;;;;;;4194971;28;20172;-71
2022/04/26 09:17:17;;;;;;;4.10;3.10;;;10.00;81.20;;;;;;4193042;28;20259;-71
2022/04/26 09:19:17;;;;;;;3.03;2.60;;;10.00;79.90;;;;;;4193656;28;20215;-71
2022/04/26 09:21:18;;;;;;;4.80;2.80;;;10.40;79.40;;;;;;4195074;28;20199;-71
2022/04/26 09:23:26;;;;;;;4.47;3.00;;;10.70;74.80;;;;;;4195074;28;20205;-71
2022/04/26 09:25:27;;;;;;;4.30;2.70;;;11.20;74.50;;;;;;4193314;28;20622;-71
2022/04/26 09:27:29;;;;;;;5.10;3.20;;;11.30;71.10;;;;;;4193760;28;20183;-72
2022/04/26 09:29:29;;;;;;;4.10;3.20;;;11.10;71.00;;;;;;4194785;28;20206;-72
2022/04/26 09:31:34;;;;;;;7.20;3.10;;;10.80;68.00;;;;;;4195078;28;20195;-71
2022/04/26 09:33:46;;;;;;;3.53;2.70;;;10.10;69.70;;;;;;4194958;28;20187;-71
2022/04/26 09:35:47;;;;;;;3.47;2.43;;;9.90;75.90;;;;;;4194377;28;20183;-71
2022/04/26 09:37:48;;;;;;;6.23;2.80;;;10.50;72.40;;;;;;4193849;28;20184;-72
2022/04/26 09:40:05;;;;;;;5.20;2.93;;;10.70;66.50;;;;;;4195160;28;20194;-71
2022/04/26 09:42:06;;;;;;;3.27;2.63;;;11.10;65.50;;;;;;4193784;28;20270;-72
2022/04/26 09:44:09;;;;;;;7.57;3.23;;;11.40;67.80;;;;;;4194922;28;20184;-71
2022/04/26 09:46:10;;;;;;;9.30;3.73;;;11.30;61.20;;;;;;4192953;28;20187;-71
2022/04/26 09:48:10;;;;;;;4.53;2.40;;;10.90;61.20;;;;;;4194896;28;20207;-71
2022/04/26 09:50:16;;;;;;;4.07;3.20;;;10.80;66.60;;;;;;4193686;28;20207;-71
2022/04/26 09:52:18;;;;;;;6.50;3.90;;;11.10;66.10;;;;;;4193767;28;20171;-71
2022/04/26 09:54:19;;;;;;;3.90;2.87;;;11.10;66.50;;;;;;4194900;28;20179;-71
2022/04/26 09:56:24;;;;;;;9.30;4.30;;;10.80;67.30;;;;;;4194160;28;20552;-71
2022/04/26 09:58:27;;;;;;;4.77;3.00;;;11.60;68.00;;;;;;4193751;28;20203;-71
2022/04/26 10:00:28;;;;;;;3.47;3.00;;;11.30;65.00;;;;;;4193590;28;20235;-71
2022/04/26 10:02:35;;;;;;;5.00;3.37;;;11.60;63.10;;;;;;4193681;28;20203;-71
2022/04/26 10:04:49;;;;;;;4.17;2.77;;;11.80;58.20;;;;;;4193787;28;20837;-71
2022/04/26 10:06:53;;;;;;;5.07;2.60;;;11.90;58.40;;;;;;4192883;28;20306;-72
2022/04/26 10:08:54;;;;;;;2.73;2.40;;;12.50;56.10;;;;;;4193443;28;20234;-70
2022/04/26 10:10:56;;;;;;;4.53;2.50;;;12.80;54.00;;;;;;4193739;28;20237;-72
2022/04/26 10:15:16;;;;;;;4.07;2.53;;;12.80;53.50;;;;;;4197069;28;21038;-71
2022/04/26 10:17:20;;;;;;;4.03;2.53;;;12.70;54.70;;;;;;4196448;28;20180;-71
2022/04/26 10:19:39;;;;;;;4.13;2.47;;;12.40;52.00;;;;;;4196835;28;20223;-71
2022/04/26 10:21:39;;;;;;;4.83;2.50;;;12.40;53.50;;;;;;4196823;28;20211;-70
2022/04/26 10:24:23;;;;;;;4.03;2.33;;;12.00;54.00;;;;;;4198015;28;20558;-71
2022/04/26 10:26:25;;;;;;;4.50;2.60;;;11.60;56.60;;;;;;4197589;28;20180;-70
2022/04/26 10:28:29;;;;;;;3.43;2.70;;;11.20;57.40;;;;;;4179986;28;20261;-70
2022/04/26 10:30:50;;;;;;;5.97;3.17;;;10.70;61.80;;;;;;4197696;28;20180;-70
2022/04/26 10:32:51;;;;;;;2.50;2.20;;;10.00;68.80;;;;;;4197641;28;20191;-70
2022/04/26 10:34:51;;;;;;;3.17;2.73;;;9.90;69.80;;;;;;4196146;28;20531;-71
2022/04/26 10:36:57;;;;;;;3.67;2.10;;;8.80;79.70;;;;;;4196951;28;20666;-70
2022/04/26 10:39:07;;;;;;;3.23;2.20;;;8.30;85.00;;;;;;4197255;28;20208;-70
2022/04/26 10:41:08;;;;;;;3.50;2.57;;;7.60;90.10;;;;;;4197317;28;20198;-70
2022/04/26 10:43:09;;;;;;;2.77;2.13;;;6.90;95.90;;;;;;4196138;28;20422;-69
2022/04/26 10:45:11;;;;;;;2.93;2.10;;;6.40;99.80;;;;;;4196946;28;20432;-71
2022/04/26 10:47:18;;;;;;;2.23;1.93;;;5.60;99.90;;;;;;4192990;28;20245;-70
2022/04/26 10:49:24;;;;;;;3.73;2.60;;;5.00;99.90;;;;;;4195759;28;20453;-70
2022/04/26 10:51:37;;;;;;;3.30;2.50;;;4.70;99.90;;;;;;4197119;28;20853;-70
2022/04/26 10:53:45;;;;;;;3.20;2.40;;;4.40;99.90;;;;;;4197234;28;20503;-70
2022/04/26 10:55:49;;;;;;;5.30;3.10;;;4.20;99.90;;;;;;4196437;28;21177;-69
2022/04/26 10:57:51;;;;;;;4.53;2.77;;;4.20;99.90;;;;;;4197178;28;20511;-70
2022/04/26 11:00:07;;;;;;;4.07;3.33;;;4.30;99.90;;;;;;4195793;28;20431;-71
2022/04/26 11:02:12;;;;;;;3.73;3.13;;;4.30;99.90;;;;;;4196848;28;20429;-69
2022/04/26 11:04:17;;;;;;;5.87;3.20;;;4.20;99.90;;;;;;4195991;28;20478;-70
2022/04/26 11:06:39;;;;;;;5.13;3.40;;;4.10;99.90;;;;;;4196392;28;20413;-71
2022/04/26 11:08:40;;;;;;;4.70;3.97;;;4.30;99.90;;;;;;4197014;28;20447;-72
2022/04/26 11:13:00;;;;;;;6.47;3.90;;;4.70;99.90;;;;;;4196875;28;20464;-72
2022/04/26 11:15:08;;;;;;;13.73;8.30;;;5.00;99.90;;;;;;4196814;28;20421;-72
2022/04/26 11:17:08;;;;;;;12.60;6.77;;;5.10;99.90;;;;;;4195019;28;20255;-71
2022/04/26 11:19:10;;;;;;;9.27;5.87;;;5.60;99.90;;;;;;4195281;28;20460;-70
2022/04/26 11:21:12;;;;;;;10.10;7.20;;;5.90;99.90;;;;;;4196620;28;20218;-71
2022/04/26 11:28:13;;;;;;;5.87;3.93;;;7.60;99.90;;;;;;4195685;28;21043;-69
2022/04/26 11:30:15;;;;;;;4.50;3.10;;;7.40;97.10;;;;;;4195342;28;20423;-71
2022/04/26 11:32:42;;;;;;;3.43;2.70;;;7.40;98.20;;;;;;4196609;28;20715;-71
2022/04/26 11:34:46;;;;;;;4.67;2.80;;;7.40;95.80;;;;;;4196521;28;20167;-72
2022/04/26 11:36:47;;;;;;;5.73;3.43;;;7.50;96.50;;;;;;4194922;28;20417;-72
2022/04/26 11:38:57;;;;;;;5.67;3.67;;;7.70;96.90;;;;;;4196474;28;20205;-72
2022/04/26 11:41:00;;;;;;;6.43;4.40;;;7.90;97.90;;;;;;4196568;28;20767;-72
2022/04/26 11:43:13;;;;;;;8.13;3.90;;;8.50;97.30;;;;;;4196562;28;20176;-72
2022/04/26 11:45:13;;;;;;;5.83;4.10;;;9.10;95.40;;;;;;4194865;28;20171;-72
2022/04/26 11:47:14;;;;;;;4.67;3.03;;;10.40;92.10;;;;;;4194958;28;20600;-71
2022/04/26 11:49:15;;;;;;;5.37;3.93;;;11.30;87.20;;;;;;4196768;28;20558;-71
2022/04/26 11:51:16;;;;;;;6.27;4.13;;;12.10;82.80;;;;;;4194960;28;20190;-71
2022/04/26 11:53:20;;;;;;;5.60;4.00;;;13.10;79.50;;;;;;4195069;28;20176;-72
2022/04/26 11:55:33;;;;;;;5.13;3.90;;;13.20;74.30;;;;;;4194354;28;20274;-71
2022/04/26 11:57:34;;;;;;;3.60;2.93;;;13.70;67.40;;;;;;4195245;28;20179;-71
2022/04/26 11:59:35;;;;;;;4.53;3.57;;;14.00;64.60;;;;;;4196493;28;20206;-71
2022/04/26 12:01:36;;;;;;;4.27;3.83;;;13.30;67.70;;;;;;4194662;28;20207;-71
2022/04/26 12:03:53;;;;;;;12.07;4.33;;;13.30;69.20;;;;;;4178168;28;20734;-71
2022/04/26 12:06:01;;;;;;;6.33;3.97;;;13.60;70.40;;;;;;4194243;28;20727;-71
2022/04/26 12:08:03;;;;;;;5.10;4.10;;;13.10;67.90;;;;;;4194808;28;20187;-71
2022/04/26 12:10:23;;;;;;;5.17;4.00;;;13.10;72.00;;;;;;4196102;28;20203;-71
2022/04/26 12:12:24;;;;;;;4.57;4.10;;;12.70;73.30;;;;;;4194614;28;20205;-71
2022/04/26 12:14:25;;;;;;;4.63;4.20;;;12.40;70.60;;;;;;4194766;28;20210;-72
2022/04/26 12:16:26;;;;;;;5.83;3.47;;;12.90;73.30;;;;;;4194064;28;20685;-71
2022/04/26 12:18:26;;;;;;;5.03;4.27;;;13.40;71.10;;;;;;4194697;28;20204;-71
2022/04/26 12:20:27;;;;;;;4.30;3.70;;;13.10;74.10;;;;;;4195644;28;20207;-71
2022/04/26 12:22:37;;;;;;;4.57;3.77;;;13.90;66.60;;;;;;4195697;28;20187;-71
2022/04/26 12:24:51;;;;;;;3.80;3.40;;;13.90;62.40;;;;;;4194496;28;20164;-72
2022/04/26 12:26:54;;;;;;;4.00;3.57;;;15.90;58.90;;;;;;4194049;28;20159;-72
2022/04/26 12:28:55;;;;;;;4.60;4.10;;;17.20;53.60;;;;;;4195650;28;20191;-72
2022/04/26 12:30:57;;;;;;;4.30;3.90;;;16.20;50.60;;;;;;4195702;28;20247;-71
2022/04/26 12:32:58;;;;;;;7.00;3.53;;;14.80;55.10;;;;;;4194360;28;20302;-71
2022/04/26 12:35:02;;;;;;;5.57;3.90;;;13.60;59.70;;;;;;4194873;28;20180;-71
2022/04/26 12:37:21;;;;;;;4.17;3.57;;;12.70;61.40;;;;;;4193711;28;20686;-71
2022/04/26 12:39:24;;;;;;;3.87;3.20;;;12.40;69.60;;;;;;4194239;28;20207;-72
2022/04/26 12:41:25;;;;;;;3.77;3.40;;;11.60;79.10;;;;;;4194253;28;20231;-70
2022/04/26 12:43:28;;;;;;;4.73;4.23;;;10.60;84.60;;;;;;4194239;28;20175;-71
2022/04/26 12:45:29;;;;;;;4.40;4.00;;;9.90;88.10;;;;;;4193403;28;20735;-70
2022/04/26 12:52:32;;;;;;;4.87;4.27;;;8.90;93.10;;;;;;4184337;28;20667;-71
2022/04/26 12:54:33;;;;;;;6.40;5.60;;;8.60;91.10;;;;;;4194258;28;20185;-71
2022/04/26 12:56:33;;;;;;;8.30;5.20;;;8.20;93.50;;;;;;4194573;28;20659;-70
2022/04/26 12:58:37;;;;;;;7.90;5.30;;;8.30;96.90;;;;;;4195179;28;20210;-71
2022/04/26 13:00:45;;;;;;;8.73;6.40;;;7.70;96.50;;;;;;4193720;28;20552;-70
2022/04/26 13:02:51;;;;;;;8.10;6.57;;;7.50;98.30;;;;;;4193920;28;20495;-70
2022/04/26 13:04:52;;;;;;;8.40;6.10;;;7.30;99.40;;;;;;4193825;28;20426;-70
2022/04/26 13:06:53;;;;;;;8.37;6.60;;;7.10;99.90;;;;;;4194535;28;20934;-71
2022/04/26 13:08:53;;;;;;;8.90;6.77;;;6.70;99.90;;;;;;4195235;28;20713;-70
2022/04/26 13:10:54;;;;;;;9.50;6.50;;;6.60;99.90;;;;;;4195288;28;20264;-70
2022/04/26 13:12:55;;;;;;;9.27;6.70;;;6.70;99.90;;;;;;4193816;28;20204;-70
2022/04/26 13:14:56;;;;;;;10.33;7.03;;;6.70;99.90;;;;;;4194998;28;20452;-70
2022/04/26 13:16:57;;;;;;;11.63;7.63;;;6.90;99.90;;;;;;4193216;28;20646;-71
2022/04/26 13:18:58;;;;;;;10.13;7.70;;;6.80;99.90;;;;;;4193698;28;20720;-70
2022/04/26 13:21:01;;;;;;;13.30;6.83;;;6.90;99.90;;;;;;4195120;28;20479;-71
2022/04/26 13:23:02;;;;;;;10.30;7.07;;;7.20;99.90;;;;;;4193763;28;20433;-70
2022/04/26 13:25:04;;;;;;;9.97;7.07;;;7.50;99.90;;;;;;4194955;28;20426;-71
2022/04/26 13:27:06;;;;;;;11.23;7.13;;;8.00;99.80;;;;;;4194901;28;20204;-71
2022/04/26 13:29:07;;;;;;;8.17;5.70;;;8.10;99.30;;;;;;4194982;28;20435;-71
2022/04/26 13:31:08;;;;;;;7.87;6.53;;;8.60;97.80;;;;;;4195078;28;20207;-71
2022/04/26 13:33:09;;;;;;;7.40;5.77;;;10.10;94.10;;;;;;4194973;28;20187;-71
2022/04/26 13:35:10;;;;;;;5.90;5.27;;;11.80;91.50;;;;;;4194619;28;20186;-70
2022/04/26 13:37:12;;;;;;;7.77;6.07;;;13.20;76.70;;;;;;4176623;28;20245;-70
2022/04/26 13:39:12;;;;;;;7.27;6.37;;;14.00;75.30;;;;;;4194804;28;20218;-71
2022/04/26 13:41:13;;;;;;;6.70;5.83;;;14.60;63.30;;;;;;4195034;28;20208;-71
2022/04/26 13:43:14;;;;;;;7.53;6.67;;;14.90;66.00;;;;;;4195043;28;20182;-70
2022/04/26 13:45:15;;;;;;;7.17;5.60;;;15.20;61.30;;;;;;4194507;28;20638;-71
2022/04/26 13:47:16;;;;;;;7.27;6.17;;;16.50;60.30;;;;;;4194714;28;20184;-71
2022/04/26 13:49:17;;;;;;;6.80;6.13;;;16.00;57.40;;;;;;4198435;28;20331;-71
2022/04/26 13:51:17;;;;;;;8.00;7.20;;;15.70;58.50;;;;;;4198015;28;20176;-70
2022/04/26 13:53:18;;;;;;;7.57;5.97;;;14.40;62.50;;;;;;4198105;28;20205;-72
2022/04/26 13:55:19;;;;;;;6.83;6.13;;;14.70;64.40;;;;;;4197749;28;20232;-71
2022/04/26 13:57:20;;;;;;;6.50;5.20;;;14.70;68.90;;;;;;4196640;28;20191;-70
2022/04/26 13:59:25;;;;;;;6.90;6.20;;;14.30;67.50;;;;;;4213443;28;20208;-71
2022/04/26 14:01:25;;;;;;;7.20;6.50;;;15.30;66.30;;;;;;4196422;28;20257;-70
2022/04/26 14:03:27;;;;;;;6.93;5.90;;;15.20;63.10;;;;;;4197965;28;20176;-72
2022/04/26 14:05:28;;;;;;;7.60;6.43;;;14.70;58.90;;;;;;4195995;28;20248;-70
2022/04/26 14:07:28;;;;;;;7.67;6.87;;;14.10;65.90;;;;;;4197756;28;20748;-71
2022/04/26 14:09:29;;;;;;;7.33;6.40;;;13.10;73.40;;;;;;4196505;28;20195;-71
2022/04/26 14:11:30;;;;;;;7.43;6.07;;;12.60;77.30;;;;;;4197769;28;20229;-70
2022/04/26 14:21:46;;;;;;;8.17;6.13;;;12.30;80.60;;;;;;4198009;28;20190;-71
2022/04/26 14:22:48;;;;;;;9.67;6.10;;;11.00;85.00;;;;;;4197284;28;21020;-69
2022/04/26 14:24:52;;;;;;;6.37;5.57;;;10.60;87.50;;;;;;4197639;28;20175;-70
2022/04/26 14:26:53;;;;;;;6.87;5.50;;;10.30;84.60;;;;;;4196889;28;20211;-69
2022/04/26 14:28:54;;;;;;;6.90;5.77;;;9.80;86.10;;;;;;4197234;28;20191;-70
2022/04/26 14:30:55;;;;;;;5.30;4.60;;;9.30;95.50;;;;;;4197513;28;20187;-69
2022/04/26 14:32:55;;;;;;;4.80;3.93;;;8.60;93.00;;;;;;4197328;28;20327;-70
2022/04/26 14:34:56;;;;;;;6.60;4.27;;;8.40;94.20;;;;;;4197143;28;20182;-71
2022/04/26 14:36:58;;;;;;;4.97;3.80;;;8.00;95.40;;;;;;4196867;28;20186;-71
2022/04/26 14:38:59;;;;;;;4.37;3.37;;;7.80;96.40;;;;;;4197361;28;20634;-71
2022/04/26 14:40:59;;;;;;;4.33;3.87;;;8.00;94.30;;;;;;4197189;28;20459;-72
2022/04/26 14:43:00;;;;;;;4.63;3.57;;;8.90;94.10;;;;;;4197355;28;20676;-71
2022/04/26 14:45:02;;;;;;;4.30;3.60;;;9.40;90.80;;;;;;4195359;28;20665;-71
2022/04/26 14:47:04;;;;;;;4.17;3.50;;;9.60;89.90;;;;;;4195437;28;20191;-71
2022/04/26 14:49:06;;;;;;;4.30;3.87;;;9.80;90.00;;;;;;4195804;28;20207;-71
2022/04/26 14:51:06;;;;;;;4.07;3.33;;;10.20;87.80;;;;;;4195687;28;20179;-71
2022/04/26 14:53:07;;;;;;;4.27;3.30;;;11.00;87.50;;;;;;4182890;28;20184;-71
2022/04/26 14:55:10;;;;;;;4.37;3.80;;;11.80;76.60;;;;;;4178935;28;20310;-72
2022/04/26 14:57:10;;;;;;;7.23;5.63;;;13.00;74.70;;;;;;4179162;28;20310;-71